Aérodrome :
LOGIN :

S'inscrire | Disclaimer

   EN    FR    IT 

 










Légende :    VFR   VFR Marginal   IFR   IFR Intensif   IFR Très Intensif
Visi : 
Plafond : 
>= 8 km
>= 3000ft
5 à 8 km
1000 à 3000 ft
1500m à 5 km
500 à 1000 ft
800 à 1500m
200 à 500 ft
< 800m
< 200 ft
Symboles :   Orages  Brouillard  Fortes neiges  Fortes précipitations  Vent > 20 kt
SIGMETs :   Divers  Orages  Givrage  Turbulence  Onde Orograph.  Cendres Volcan.






- Altitude de l'aérodrome : 257 ft
- Code IATA : MAN


EGCC - Manchester

DERNIER METAR :
  • 281020Z 14012G23KT 100V200 9999 -RA SCT011 BKN035 03/02 Q1001 TEMPO RA BKN012

METARs EXPIRÉS :
  • 280950Z VRB09KT 9999 -RA FEW013 BKN036 03/01 Q1002 TEMPO RA BKN012
  • 280920Z 14007KT 100V190 8000 -RASN FEW007 SCT013 BKN036 02/01 Q1003 TEMPO RA BKN012
  • 280850Z 15007KT 110V190 7000 -RASN FEW006 SCT013 BKN021 02/01 Q1005 TEMPO RA BKN012
  • 280820Z AUTO VRB06KT 7000 -RA BKN009 OVC031 02/01 Q1006 TEMPO RA
  • 280750Z AUTO 17006KT 120V230 9999 -RA FEW017 BKN025 BKN034 03/01 Q1006 TEMPO RA BKN012

TAF TAF EGCC
Valide du 28 à 06h jusqu'au 29 à 12h UTC


280455Z 2806/2912 21008KT 9999 SCT030
BECMG 2806/2808 15012KT
TEMPO 2808/2908 8000 -RA BKN012
PROB40
TEMPO 2808/2904 4000 RADZ BKN008
PROB40
TEMPO 2810/2815 16018G28KT
BECMG 2821/2824 18018G28KT
PROB30
TEMPO 2904/2907 18024G38KT 2500 +RA
BECMG 2905/2908 25012KT
BECMG 2909/2912 24018G28KT
ATIS : +44 161 499 2324



MET'MAP, la Météo Aéronautique d'un coup d'oeil ! - Copyright ORBIFLY Décembre 2007 - Disclaimer

ORBIFLY MET'MAP TEAM :

Programmation & Développement : Alexandra Zaïnal
Sur une idée originale de : Baudouin d'Aumeries
Assistance à la programmation : Marc-Olivier Méhu
Soutien technique & logistique : Manuel Goepfert

Contact : metmap@orbifly.com




SOURCES & CREDITS :

   NOAA